createdAt,value
2018-02-22T00:02:21.801Z,46.23
2018-02-22T00:04:49.293Z,46.03
2018-02-22T00:07:16.774Z,44.43
2018-02-22T00:09:44.260Z,46.03
2018-02-22T00:12:11.780Z,47.17
2018-02-22T00:14:39.248Z,48.70
2018-02-22T00:17:06.733Z,46.73
2018-02-22T00:19:34.224Z,40.10
2018-02-22T00:22:02.477Z,49.67
2018-02-22T00:24:29.969Z,48.10
2018-02-22T00:26:58.214Z,51.10
2018-02-22T00:29:27.218Z,44.80
2018-02-22T00:31:55.499Z,47.80
2018-02-22T00:34:22.976Z,44.47
2018-02-22T00:36:50.468Z,44.50
2018-02-22T00:39:17.966Z,48.63
2018-02-22T00:41:45.442Z,44.43
2018-02-22T00:44:13.706Z,48.17
2018-02-22T00:46:41.946Z,47.47
2018-02-22T00:49:09.438Z,47.23
2018-02-22T00:51:37.681Z,39.93
2018-02-22T00:54:05.173Z,46.50
2018-02-22T00:56:33.464Z,46.53
2018-02-22T00:59:01.020Z,44.90
2018-02-22T01:01:29.278Z,45.37
2018-02-22T01:03:56.747Z,46.57
2018-02-22T01:06:25.012Z,40.40
2018-02-22T01:08:52.487Z,48.08
2018-02-22T01:11:20.751Z,40.20
2018-02-22T01:13:49.026Z,42.07
2018-02-22T01:16:17.301Z,42.90
2018-02-22T01:18:45.566Z,48.80
2018-02-22T01:21:13.848Z,47.23
2018-02-22T01:23:41.332Z,45.57
2018-02-22T01:26:08.830Z,45.97
2018-02-22T01:28:36.305Z,44.30
2018-02-22T01:31:03.814Z,45.27
2018-02-22T01:33:31.349Z,46.70
2018-02-22T01:35:59.597Z,41.90
2018-02-22T01:38:27.077Z,39.73
2018-02-22T01:40:54.574Z,49.70
2018-02-22T01:43:22.083Z,40.80
2018-02-22T01:45:49.559Z,41.00
2018-02-22T01:48:17.809Z,38.97
2018-02-22T01:50:47.134Z,46.00
2018-02-22T01:53:15.376Z,44.13
2018-02-22T01:55:42.866Z,42.37
2018-02-22T01:58:11.104Z,44.00
2018-02-22T02:00:38.599Z,42.10
2018-02-22T02:03:06.857Z,44.50
2018-02-22T02:05:34.352Z,43.67
2018-02-22T02:08:02.589Z,38.50
2018-02-22T02:10:30.095Z,42.60
2018-02-22T02:12:57.568Z,45.23
2018-02-22T02:15:25.073Z,42.23
2018-02-22T02:17:52.541Z,42.73
2018-02-22T02:20:20.813Z,40.77
2018-02-22T02:22:48.284Z,40.90
2018-02-22T02:25:16.532Z,38.70
2018-02-22T02:27:49.697Z,40.40
2018-02-22T02:30:17.198Z,44.70
2018-02-22T02:32:45.451Z,40.63
2018-02-22T02:35:12.954Z,36.65
2018-02-22T02:37:40.429Z,48.17
2018-02-22T02:40:07.952Z,38.17
2018-02-22T02:42:36.206Z,41.90
2018-02-22T02:45:04.486Z,38.33
2018-02-22T02:47:31.976Z,37.90
2018-02-22T02:50:00.292Z,40.23
2018-02-22T02:52:27.780Z,41.77
2018-02-22T02:54:55.265Z,39.93
2018-02-22T02:57:23.575Z,41.07
2018-02-22T02:59:51.043Z,38.03
2018-02-22T03:02:18.544Z,37.13
2018-02-22T03:04:46.795Z,41.80
2018-02-22T03:07:15.544Z,37.20
2018-02-22T03:09:43.012Z,41.77
2018-02-22T03:12:10.488Z,33.03
2018-02-22T03:14:37.965Z,35.33
2018-02-22T03:17:05.459Z,45.83
2018-02-22T03:19:33.715Z,40.05
2018-02-22T03:22:01.986Z,41.83
2018-02-22T03:24:29.467Z,36.53
2018-02-22T03:26:57.713Z,37.43
2018-02-22T03:29:25.186Z,40.60
2018-02-22T03:31:53.455Z,41.03
2018-02-22T03:34:21.719Z,40.30
2018-02-22T03:36:49.205Z,39.30
2018-02-22T03:39:17.451Z,38.30
2018-02-22T03:41:44.950Z,39.17
2018-02-22T03:44:12.427Z,33.80
2018-02-22T03:46:39.913Z,37.83
2018-02-22T03:49:08.188Z,41.10
2018-02-22T03:51:35.678Z,46.20
2018-02-22T03:54:03.943Z,32.97
2018-02-22T03:56:32.212Z,34.47
2018-02-22T03:58:59.676Z,36.20
2018-02-22T04:01:27.175Z,40.43
2018-02-22T04:03:54.676Z,30.40
2018-02-22T04:06:22.163Z,32.53
2018-02-22T04:08:50.409Z,36.27
2018-02-22T04:11:17.917Z,36.33
2018-02-22T04:13:45.396Z,34.13
2018-02-22T04:16:12.892Z,37.87
2018-02-22T04:18:40.371Z,30.47
2018-02-22T04:21:08.629Z,37.03
2018-02-22T04:23:37.926Z,34.75
2018-02-22T04:26:05.411Z,32.60
2018-02-22T04:28:33.679Z,34.03
2018-02-22T04:31:01.917Z,36.63
2018-02-22T04:33:29.408Z,30.40
2018-02-22T04:35:57.661Z,37.57
2018-02-22T04:38:25.144Z,33.50
2018-02-22T04:40:53.383Z,30.83
2018-02-22T04:43:20.980Z,32.47
2018-02-22T04:45:49.238Z,38.22
2018-02-22T04:48:16.740Z,35.43
2018-02-22T04:50:44.229Z,32.93
2018-02-22T04:53:11.716Z,30.97
2018-02-22T04:55:39.199Z,35.10
2018-02-22T04:58:07.476Z,31.20
2018-02-22T05:00:35.714Z,33.63
2018-02-22T05:03:03.194Z,32.47
2018-02-22T05:05:30.668Z,26.70
2018-02-22T05:07:59.039Z,28.60
2018-02-22T05:10:27.284Z,36.90
2018-02-22T05:12:55.616Z,36.23
2018-02-22T05:15:23.147Z,31.23
2018-02-22T05:17:51.417Z,49.13
2018-02-22T05:20:19.656Z,32.63
2018-02-22T05:22:47.164Z,37.33
2018-02-22T05:25:15.419Z,33.10
2018-02-22T05:27:42.935Z,33.60
2018-02-22T05:30:10.420Z,28.80
2018-02-22T05:32:37.913Z,31.70
2018-02-22T05:35:06.186Z,30.17
2018-02-22T05:37:34.458Z,31.00
2018-02-22T05:40:02.713Z,27.70
2018-02-22T05:42:30.978Z,33.77
2018-02-22T05:44:58.452Z,31.37
2018-02-22T05:47:25.934Z,29.77
2018-02-22T05:49:54.173Z,32.70
2018-02-22T05:52:21.680Z,38.55
2018-02-22T05:54:49.161Z,32.50
2018-02-22T05:57:16.672Z,31.47
2018-02-22T05:59:44.919Z,32.43
2018-02-22T06:02:12.399Z,32.80
2018-02-22T06:04:39.896Z,33.73
2018-02-22T06:07:07.378Z,37.50
2018-02-22T06:09:34.894Z,35.93
2018-02-22T06:12:03.148Z,30.80
2018-02-22T06:14:31.406Z,32.97
2018-02-22T06:16:58.906Z,36.23
2018-02-22T06:19:27.162Z,33.43
2018-02-22T06:21:54.641Z,31.90
2018-02-22T06:24:22.898Z,36.28
2018-02-22T06:26:51.146Z,28.40
2018-02-22T06:29:18.646Z,34.93
2018-02-22T06:31:46.890Z,34.80
2018-02-22T06:34:15.037Z,35.83
2018-02-22T06:36:42.527Z,36.10
2018-02-22T06:39:10.005Z,34.83
2018-02-22T06:41:38.246Z,33.20
2018-02-22T06:44:05.748Z,33.70
2018-02-22T06:46:34.003Z,34.77
2018-02-22T06:49:01.484Z,34.43
2018-02-22T06:51:29.029Z,40.87
2018-02-22T06:53:57.308Z,35.40
2018-02-22T06:56:25.538Z,31.77
2018-02-22T06:58:53.039Z,33.33
2018-02-22T07:01:21.293Z,36.27
2018-02-22T07:03:48.786Z,40.60
2018-02-22T07:06:17.181Z,34.67
2018-02-22T07:08:44.662Z,34.90
2018-02-22T07:11:12.139Z,39.30
2018-02-22T07:13:39.630Z,32.93
2018-02-22T07:16:07.866Z,38.40
2018-02-22T07:18:35.365Z,38.13
2018-02-22T07:21:03.612Z,36.80
2018-02-22T07:23:31.126Z,37.00
2018-02-22T07:25:58.602Z,38.07
2018-02-22T07:28:26.106Z,37.20
2018-02-22T07:30:54.354Z,37.13
2018-02-22T07:33:21.844Z,35.00
2018-02-22T07:35:49.331Z,38.43
2018-02-22T07:38:16.829Z,37.97
2018-02-22T07:40:44.312Z,39.55
2018-02-22T07:43:11.892Z,36.47
2018-02-22T07:45:39.327Z,34.57
2018-02-22T07:48:07.596Z,36.73
2018-02-22T07:50:35.093Z,38.80
2018-02-22T07:53:02.561Z,35.13
2018-02-22T07:55:30.046Z,42.10
2018-02-22T07:57:57.534Z,31.97
2018-02-22T08:00:25.791Z,35.77
2018-02-22T08:02:53.386Z,33.88
2018-02-22T08:05:21.651Z,38.53
2018-02-22T08:07:49.907Z,40.10
2018-02-22T08:10:17.404Z,42.60
2018-02-22T08:12:44.986Z,44.10
2018-02-22T08:15:12.519Z,34.47
2018-02-22T08:17:40.772Z,41.70
2018-02-22T08:20:09.038Z,40.17
2018-02-22T08:22:36.534Z,34.53
2018-02-22T08:25:04.052Z,40.77
2018-02-22T08:27:31.525Z,38.10
2018-02-22T08:29:59.004Z,37.30
2018-02-22T08:32:26.488Z,49.77
2018-02-22T08:34:54.000Z,39.13
2018-02-22T08:37:22.247Z,40.03
2018-02-22T08:39:49.735Z,40.40
2018-02-22T08:42:18.015Z,36.83
2018-02-22T08:44:45.500Z,37.90
2018-02-22T08:47:13.729Z,37.63
2018-02-22T08:49:42.001Z,47.72
2018-02-22T08:52:09.489Z,34.17
2018-02-22T08:54:36.983Z,35.60
2018-02-22T08:57:04.470Z,36.93
2018-02-22T08:59:31.974Z,37.93
2018-02-22T09:02:00.233Z,39.40
2018-02-22T09:04:28.485Z,42.33
2018-02-22T09:06:55.969Z,39.30
2018-02-22T09:09:24.223Z,37.67
2018-02-22T09:11:51.691Z,50.77
2018-02-22T09:14:19.954Z,37.67
2018-02-22T09:16:47.533Z,43.47
2018-02-22T09:19:16.709Z,40.00
2018-02-22T09:21:51.592Z,40.07
2018-02-22T09:24:19.100Z,41.40
2018-02-22T09:26:46.607Z,34.03
2018-02-22T09:29:14.121Z,36.07
2018-02-22T09:31:41.609Z,33.73
2018-02-22T09:34:09.107Z,38.90
2018-02-22T09:36:36.598Z,44.27
2018-02-22T09:39:04.102Z,38.83
2018-02-22T09:41:31.599Z,34.07
2018-02-22T09:43:59.077Z,32.07
2018-02-22T09:46:27.354Z,31.67
2018-02-22T09:48:54.861Z,51.37
2018-02-22T09:51:22.382Z,31.10
2018-02-22T09:53:50.631Z,34.40
2018-02-22T09:56:18.124Z,33.03
2018-02-22T09:58:46.368Z,42.53
2018-02-22T10:01:13.859Z,42.03
2018-02-22T10:03:41.349Z,44.88
2018-02-22T10:06:08.853Z,32.63
2018-02-22T10:08:37.107Z,32.50
2018-02-22T10:11:04.588Z,31.27
2018-02-22T10:13:32.076Z,34.57
2018-02-22T10:15:59.575Z,38.20
2018-02-22T10:18:27.166Z,31.60
2018-02-22T10:20:55.428Z,28.10
2018-02-22T10:23:22.899Z,28.73
2018-02-22T10:25:50.380Z,29.27
2018-02-22T10:28:17.852Z,32.17
2018-02-22T10:30:45.348Z,35.73
2018-02-22T10:33:12.837Z,27.73
2018-02-22T10:35:41.103Z,29.83
2018-02-22T10:38:08.585Z,30.77
2018-02-22T10:40:36.833Z,44.70
2018-02-22T10:43:04.297Z,31.73
2018-02-22T10:45:31.783Z,33.30
2018-02-22T10:47:59.262Z,36.73
2018-02-22T10:50:26.749Z,31.30
2018-02-22T10:52:54.222Z,24.63
2018-02-22T10:55:21.720Z,28.53
2018-02-22T10:57:49.230Z,28.53
2018-02-22T11:00:17.505Z,25.12
2018-02-22T11:02:53.572Z,23.83
2018-02-22T11:05:21.055Z,34.03
2018-02-22T11:07:49.290Z,28.47
2018-02-22T11:10:16.782Z,29.80
2018-02-22T11:12:45.032Z,28.53
2018-02-22T11:15:12.512Z,35.57
2018-02-22T11:17:40.780Z,36.70
2018-02-22T11:20:09.869Z,33.75
2018-02-22T11:22:37.428Z,34.60
2018-02-22T11:25:06.430Z,29.80
2018-02-22T11:27:34.714Z,25.30
2018-02-22T11:30:02.964Z,33.63
2018-02-22T11:32:30.454Z,26.60
2018-02-22T11:34:58.704Z,28.87
2018-02-22T11:37:26.200Z,32.73
2018-02-22T11:39:53.689Z,29.07
2018-02-22T11:42:21.181Z,32.97
2018-02-22T11:44:48.682Z,29.97
2018-02-22T11:47:16.176Z,29.83
2018-02-22T11:49:43.653Z,36.73
2018-02-22T11:52:12.647Z,32.57
2018-02-22T11:54:40.125Z,30.00
2018-02-22T11:57:08.371Z,24.60
2018-02-22T11:59:35.850Z,28.60
2018-02-22T12:02:04.115Z,27.17
2018-02-22T12:04:31.594Z,26.90
2018-02-22T12:06:59.073Z,32.20
2018-02-22T12:09:26.536Z,35.17
2018-02-22T12:11:54.033Z,31.30
2018-02-22T12:14:21.522Z,33.70
2018-02-22T12:16:49.791Z,35.90
2018-02-22T12:19:18.048Z,30.23
2018-02-22T12:21:45.543Z,29.90
2018-02-22T12:24:13.025Z,33.03
2018-02-22T12:26:40.503Z,24.48
2018-02-22T12:29:08.001Z,25.97
2018-02-22T12:31:36.250Z,31.17
2018-02-22T12:34:03.745Z,34.90
2018-02-22T12:36:32.004Z,32.27
2018-02-22T12:39:00.254Z,31.20
2018-02-22T12:41:27.738Z,31.13
2018-02-22T12:43:55.996Z,30.37
2018-02-22T12:46:23.482Z,31.60
2018-02-22T12:48:51.732Z,28.75
2018-02-22T12:51:19.208Z,32.87
2018-02-22T12:53:47.442Z,25.37
2018-02-22T12:56:14.934Z,28.40
2018-02-22T12:58:42.414Z,28.20
2018-02-22T13:01:10.643Z,30.30
2018-02-22T13:03:38.145Z,28.27
2018-02-22T13:06:06.389Z,27.37
2018-02-22T13:08:34.652Z,23.13
2018-02-22T13:11:02.126Z,29.43
2018-02-22T13:13:29.617Z,23.13
2018-02-22T13:15:57.858Z,25.17
2018-02-22T13:18:25.339Z,27.40
2018-02-22T13:20:54.118Z,33.25
2018-02-22T13:23:21.615Z,23.87
2018-02-22T13:25:49.094Z,24.83
2018-02-22T13:28:16.585Z,22.70
2018-02-22T13:30:44.161Z,18.60
2018-02-22T13:33:24.206Z,22.17
2018-02-22T13:35:52.440Z,21.63
2018-02-22T13:38:31.819Z,19.23
2018-02-22T13:41:00.065Z,20.80
2018-02-22T13:43:27.598Z,22.03
2018-02-22T13:45:55.056Z,24.70
2018-02-22T13:48:22.550Z,31.47
2018-02-22T13:51:00.968Z,32.57
2018-02-22T13:53:28.487Z,24.70
2018-02-22T13:55:56.730Z,21.43
2018-02-22T13:58:24.994Z,19.63
2018-02-22T14:01:05.194Z,20.93
2018-02-22T14:03:32.703Z,17.67
2018-02-22T14:06:00.963Z,23.03
2018-02-22T14:14:14.862Z,18.50
2018-02-22T14:17:04.774Z,22.23
2018-02-22T14:19:32.252Z,18.80
2018-02-22T14:21:59.757Z,17.83
2018-02-22T14:24:28.042Z,19.67
2018-02-22T14:26:57.389Z,23.97
2018-02-22T14:29:24.878Z,19.73
2018-02-22T14:31:52.495Z,17.80
2018-02-22T14:34:20.000Z,17.70
2018-02-22T14:36:47.564Z,14.60
2018-02-22T14:39:15.968Z,19.20
2018-02-22T14:41:44.218Z,23.60
2018-02-22T14:44:12.466Z,20.30
2018-02-22T14:46:39.947Z,27.93
2018-02-22T14:49:08.958Z,22.53
2018-02-22T14:51:37.723Z,22.00
2018-02-22T14:54:05.222Z,27.10
2018-02-22T14:56:32.697Z,18.20
2018-02-22T14:59:00.185Z,21.63
2018-02-22T15:01:27.700Z,23.77
2018-02-22T15:03:55.917Z,19.00
2018-02-22T15:06:23.379Z,21.50
2018-02-22T15:08:50.881Z,20.70
2018-02-22T15:11:19.122Z,17.37
2018-02-22T15:13:46.616Z,23.23
2018-02-22T15:16:14.861Z,18.87
2018-02-22T15:18:42.366Z,20.93
2018-02-22T15:21:09.851Z,22.20
2018-02-22T15:23:37.370Z,17.63
2018-02-22T15:26:05.748Z,20.43
2018-02-22T15:28:33.269Z,22.13
2018-02-22T15:31:00.843Z,22.93
2018-02-22T15:33:28.324Z,19.97
2018-02-22T15:35:55.807Z,21.30
2018-02-22T15:38:23.295Z,21.67
2018-02-22T15:40:50.790Z,24.33
2018-02-22T15:43:19.029Z,21.10
2018-02-22T15:45:47.270Z,21.10
2018-02-22T15:48:14.763Z,20.80
2018-02-22T15:50:42.260Z,16.80
2018-02-22T15:53:10.524Z,21.23
2018-02-22T15:55:38.773Z,26.60
2018-02-22T15:58:06.264Z,18.17
2018-02-22T16:00:34.506Z,25.80
2018-02-22T16:03:02.852Z,22.47
2018-02-22T16:05:30.329Z,17.50
2018-02-22T16:07:58.722Z,20.03
2018-02-22T16:10:26.203Z,20.20
2018-02-22T16:12:54.461Z,18.97
2018-02-22T16:15:22.726Z,24.83
2018-02-22T16:17:50.218Z,25.33
2018-02-22T16:20:18.480Z,14.50
2018-02-22T16:22:45.946Z,22.73
2018-02-22T16:25:14.236Z,23.10
2018-02-22T16:27:42.481Z,18.00
2018-02-22T16:30:11.176Z,22.95
2018-02-22T16:32:38.670Z,20.10
2018-02-22T16:35:06.158Z,22.47
2018-02-22T16:37:33.649Z,19.50
2018-02-22T16:40:02.634Z,22.63
2018-02-22T16:42:30.144Z,20.13
2018-02-22T16:44:57.639Z,20.77
2018-02-22T16:47:25.118Z,26.47
2018-02-22T16:49:52.594Z,22.23
2018-02-22T16:52:21.359Z,17.23
2018-02-22T16:54:48.833Z,19.77
2018-02-22T16:57:17.083Z,20.07
2018-02-22T16:59:44.577Z,18.63
2018-02-22T17:02:12.863Z,22.90
2018-02-22T17:04:40.382Z,25.33
2018-02-22T17:07:07.863Z,19.37
2018-02-22T17:09:36.130Z,21.30
2018-02-22T17:12:04.661Z,15.57
2018-02-22T17:14:32.323Z,17.20
2018-02-22T17:16:59.977Z,17.63
2018-02-22T17:19:27.449Z,17.00
2018-02-22T17:21:54.952Z,17.73
2018-02-22T17:24:22.481Z,19.10
2018-02-22T17:26:55.773Z,16.20
2018-02-22T17:29:28.856Z,17.10
2018-02-22T17:32:02.066Z,17.67
2018-02-22T17:34:30.346Z,18.90
2018-02-22T17:50:19.396Z,17.90
2018-02-22T17:52:46.866Z,22.00
2018-02-22T17:55:14.424Z,24.17
2018-02-22T17:57:41.903Z,17.53
2018-02-22T18:00:10.205Z,15.57
2018-02-22T18:02:37.674Z,16.77
2018-02-22T18:05:05.167Z,16.20
2018-02-22T18:07:32.649Z,18.20
2018-02-22T18:10:01.913Z,15.50
2018-02-22T18:12:29.522Z,17.50
2018-02-22T18:26:29.707Z,28.50
2018-02-22T18:28:57.962Z,21.67
2018-02-22T18:31:25.441Z,19.53
2018-02-22T18:33:53.684Z,18.40
2018-02-22T18:36:21.187Z,21.10
2018-02-22T18:38:55.063Z,18.57
2018-02-22T18:41:22.557Z,17.80
2018-02-22T18:56:38.413Z,18.30
2018-02-22T18:59:05.932Z,19.30
2018-02-22T19:01:33.670Z,16.17
2018-02-22T19:04:01.158Z,15.30
2018-02-22T19:06:28.647Z,18.63
2018-02-22T19:08:56.933Z,14.97
2018-02-22T19:11:24.428Z,19.15
2018-02-22T19:13:51.908Z,17.73
2018-02-22T19:16:19.394Z,20.27
2018-02-22T19:18:47.653Z,23.10
2018-02-22T19:21:15.136Z,21.00
2018-02-22T19:23:43.375Z,15.43
2018-02-22T19:26:10.963Z,18.30
2018-02-22T19:28:38.438Z,18.00
2018-02-22T19:31:05.927Z,17.63
2018-02-22T19:33:33.432Z,15.23
2018-02-22T19:36:00.907Z,17.60
2018-02-22T19:38:29.135Z,16.83
2018-02-22T19:40:56.618Z,18.20
2018-02-22T19:43:24.195Z,16.50
2018-02-22T19:45:52.462Z,15.95
2018-02-22T19:48:20.691Z,16.00
2018-02-22T19:50:48.166Z,18.63
2018-02-22T19:53:15.653Z,15.13
2018-02-22T19:55:43.911Z,16.50
2018-02-22T19:58:12.890Z,17.33
2018-02-22T20:00:40.386Z,18.90
2018-02-22T20:03:08.626Z,14.30
2018-02-22T20:05:36.104Z,16.17
2018-02-22T20:08:03.560Z,19.27
2018-02-22T20:10:31.038Z,12.43
2018-02-22T20:12:59.290Z,13.77
2018-02-22T20:15:26.772Z,12.37
2018-02-22T20:17:55.016Z,19.80
2018-02-22T20:20:22.497Z,13.20
2018-02-22T20:22:50.753Z,21.90
2018-02-22T20:25:18.224Z,23.37
2018-02-22T20:27:46.482Z,17.97
2018-02-22T20:30:13.976Z,15.40
2018-02-22T20:32:42.228Z,17.00
2018-02-22T20:35:10.485Z,17.07
2018-02-22T20:37:37.978Z,15.40
2018-02-22T20:40:06.227Z,15.07
2018-02-22T20:42:33.719Z,17.80
2018-02-22T20:45:01.979Z,20.33
2018-02-22T20:47:30.246Z,16.87
2018-02-22T20:49:57.733Z,19.53
2018-02-22T20:52:38.848Z,13.20
2018-02-22T20:55:10.342Z,13.73
2018-02-22T20:57:38.616Z,14.93
2018-02-22T21:00:06.881Z,15.90
2018-02-22T21:02:34.417Z,17.70
2018-02-22T21:05:01.898Z,20.83
2018-02-22T21:07:29.385Z,15.47
2018-02-22T21:09:57.631Z,16.70
2018-02-22T21:12:25.126Z,16.37
2018-02-22T21:14:52.623Z,13.77
2018-02-22T21:17:20.119Z,14.37
2018-02-22T21:19:47.606Z,19.90
2018-02-22T21:22:15.094Z,18.27
2018-02-22T21:24:42.566Z,14.07
2018-02-22T21:27:10.067Z,18.17
2018-02-22T21:29:38.306Z,13.57
2018-02-22T21:32:11.995Z,10.75
2018-02-22T21:34:45.182Z,15.63
2018-02-22T21:37:15.101Z,12.37
2018-02-22T21:39:47.979Z,17.97
2018-02-22T21:42:15.683Z,15.60
2018-02-22T21:44:45.509Z,15.10
2018-02-22T21:47:16.402Z,15.50
2018-02-22T21:49:46.183Z,15.37
2018-02-22T21:52:16.515Z,14.17
2018-02-22T21:54:46.124Z,14.43
2018-02-22T21:57:17.165Z,11.50
2018-02-22T21:59:47.333Z,12.70
2018-02-22T22:02:16.537Z,13.50
2018-02-22T22:04:45.751Z,13.87
2018-02-22T22:07:16.191Z,16.90
2018-02-22T22:09:51.339Z,11.83
2018-02-22T22:12:21.615Z,13.40
2018-02-22T22:14:50.441Z,15.20
2018-02-22T22:17:20.968Z,18.37
2018-02-22T22:19:51.668Z,11.90
2018-02-22T22:22:22.415Z,12.67
2018-02-22T22:24:56.025Z,14.68
2018-02-22T22:27:28.093Z,13.17
2018-02-22T22:29:58.312Z,16.60
2018-02-22T22:32:29.907Z,14.83
2018-02-22T22:35:01.619Z,17.70
2018-02-22T22:37:31.736Z,14.47
2018-02-22T22:40:02.970Z,18.40
2018-02-22T22:42:35.043Z,12.50
2018-02-22T22:45:04.755Z,13.73
2018-02-22T22:47:34.561Z,14.20
2018-02-22T22:50:04.268Z,16.40
2018-02-22T22:52:32.195Z,16.47
2018-02-22T22:55:04.478Z,13.80
2018-02-22T22:57:34.812Z,13.07
2018-02-22T23:00:04.334Z,13.05
2018-02-22T23:02:33.626Z,12.18
2018-02-22T23:05:06.543Z,14.03
2018-02-22T23:17:07.848Z,12.87
2018-02-22T23:34:53.395Z,13.87
2018-02-22T23:37:36.200Z,13.20
2018-02-22T23:48:55.846Z,14.98
2018-02-22T23:52:06.415Z,13.00
2018-02-22T23:54:47.459Z,12.77
2018-02-22T23:57:42.891Z,13.57
